createdAt,value
2019-04-13T00:01:49.214Z,142186.69
2019-04-13T00:06:50.063Z,142201.86
2019-04-13T00:11:47.897Z,142193.72
2019-04-13T00:16:43.980Z,142158.69
2019-04-13T00:21:40.003Z,142149.34
2019-04-13T00:26:35.927Z,142147.06
2019-04-13T00:31:31.923Z,142102.73
2019-04-13T00:36:27.861Z,142110.88
2019-04-13T00:41:23.785Z,142100.39
2019-04-13T00:46:19.705Z,142091.06
2019-04-13T00:51:16.212Z,142082.87
2019-04-13T00:56:12.318Z,142081.73
2019-04-13T01:01:08.245Z,142096.91
2019-04-13T01:06:04.206Z,142084.08
2019-04-13T01:11:00.226Z,142043.22
2019-04-13T01:15:56.195Z,142042.06
2019-04-13T01:20:55.789Z,142025.75
2019-04-13T01:25:51.729Z,142028.09
2019-04-13T01:30:47.695Z,142012.94
2019-04-13T01:35:43.618Z,141974.44
2019-04-13T01:40:39.747Z,141959.31
2019-04-13T01:45:35.717Z,141959.31
2019-04-13T01:50:36.293Z,141962.81
2019-04-13T01:55:32.431Z,141967.44
2019-04-13T02:00:39.286Z,142021.06
2019-04-13T02:05:42.884Z,142025.75
2019-04-13T02:10:46.674Z,142049.06
2019-04-13T02:15:42.699Z,142029.25
2019-04-13T02:20:41.908Z,142000.11
2019-04-13T02:25:37.933Z,141993.08
2019-04-13T02:30:33.868Z,141960.47
2019-04-13T02:35:36.004Z,141956.97
2019-04-13T02:40:27.797Z,141955.78
2019-04-13T02:45:23.730Z,141925.50
2019-04-13T02:50:19.858Z,141923.16
2019-04-13T02:55:15.790Z,141918.47
2019-04-13T03:00:12.452Z,141947.64
2019-04-13T03:05:08.795Z,141876.53
2019-04-13T03:10:05.205Z,141895.19
2019-04-13T03:15:01.123Z,141934.83
2019-04-13T03:20:07.797Z,141889.34
2019-04-13T03:25:05.038Z,141908.00
2019-04-13T03:30:01.053Z,141937.13
2019-04-13T03:34:56.977Z,141940.66
2019-04-13T03:39:52.987Z,141927.80
2019-04-13T03:44:48.905Z,141918.47
2019-04-13T03:49:44.834Z,141937.13
2019-04-13T03:54:40.764Z,141933.63
2019-04-13T03:59:36.682Z,141894.03
2019-04-13T04:04:32.606Z,141924.31
2019-04-13T04:09:28.522Z,141911.48
2019-04-13T04:14:24.429Z,141884.72
2019-04-13T04:19:20.353Z,141859.03
2019-04-13T04:24:16.357Z,141853.20
2019-04-13T04:29:12.275Z,141887.02
2019-04-13T04:34:08.203Z,141882.38
2019-04-13T04:39:05.627Z,141920.81
2019-04-13T04:44:01.948Z,141925.50
2019-04-13T04:48:57.966Z,141905.66
2019-04-13T04:53:53.894Z,141918.47
2019-04-13T04:58:49.815Z,141911.48
2019-04-13T05:03:45.784Z,141925.50
2019-04-13T05:08:43.584Z,141916.17
2019-04-13T05:13:43.528Z,141924.31
2019-04-13T05:18:41.818Z,141929.00
2019-04-13T05:23:41.878Z,141910.34
2019-04-13T05:28:39.866Z,141932.48
2019-04-13T05:38:55.902Z,141944.16
2019-04-13T05:43:52.663Z,141948.80
2019-04-13T05:48:49.181Z,141937.13
2019-04-13T05:53:47.688Z,141976.78
2019-04-13T05:58:44.377Z,141937.13
2019-04-13T06:03:40.989Z,141960.47
2019-04-13T06:08:37.600Z,141974.44
2019-04-13T06:13:34.153Z,142043.22
2019-04-13T06:18:30.574Z,142102.73
2019-04-13T06:23:26.776Z,142092.22
2019-04-13T06:28:22.727Z,142060.72
2019-04-13T06:33:23.395Z,142144.70
2019-04-13T06:38:21.721Z,142177.34
2019-04-13T06:43:17.394Z,142135.38
2019-04-13T06:48:13.436Z,142179.69
2019-04-13T06:53:09.497Z,142221.72
2019-04-13T06:58:05.542Z,142261.38
2019-04-13T07:03:01.567Z,142410.80
2019-04-13T07:08:14.772Z,142445.81
2019-04-13T07:13:24.941Z,142285.88
2019-04-13T07:18:21.523Z,142473.84
2019-04-13T07:23:17.476Z,142378.13
2019-04-13T07:28:13.402Z,142403.80
2019-04-13T07:33:09.437Z,142375.78
2019-04-13T07:38:05.403Z,142231.06
2019-04-13T07:43:01.428Z,142252.03
2019-04-13T07:48:11.581Z,142200.70
2019-04-13T07:53:09.422Z,142298.72
2019-04-13T07:58:05.467Z,142487.89
2019-04-13T08:03:01.390Z,142499.58
2019-04-13T08:07:57.315Z,142354.75
2019-04-13T08:12:53.249Z,142501.88
2019-04-13T08:17:53.560Z,142562.66
2019-04-13T08:22:47.500Z,142484.39
2019-04-13T08:27:43.444Z,142431.83
2019-04-13T08:32:41.783Z,142584.84
2019-04-13T08:37:52.865Z,142580.19
2019-04-13T08:48:01.242Z,142795.28
2019-04-13T08:53:00.151Z,142908.75
2019-04-13T08:58:07.145Z,143000.00
2019-04-13T09:03:13.851Z,143100.66
2019-04-13T09:08:28.642Z,143131.09
2019-04-13T09:13:15.208Z,142824.53
2019-04-13T09:18:16.382Z,142822.19
2019-04-13T09:28:36.784Z,142892.34
2019-04-13T09:33:38.490Z,142831.55
2019-04-13T09:38:42.205Z,142989.44
2019-04-13T09:43:40.050Z,142690.03
2019-04-13T09:48:38.575Z,142659.64
2019-04-13T09:53:38.729Z,142636.25
2019-04-13T09:58:37.149Z,142659.64
2019-04-13T10:03:39.165Z,142646.78
2019-04-13T10:08:55.809Z,142693.55
2019-04-13T10:19:01.348Z,142611.75
2019-04-13T10:23:58.752Z,142518.27
2019-04-13T10:29:07.898Z,142642.09
2019-04-13T10:34:11.741Z,142691.19
2019-04-13T10:39:16.159Z,142805.83
2019-04-13T10:44:17.310Z,142768.41
2019-04-13T10:49:34.334Z,142805.83
2019-04-13T10:54:36.392Z,142730.95
2019-04-13T10:59:40.140Z,142642.09
2019-04-13T11:04:40.443Z,142611.75
2019-04-13T11:09:39.910Z,142547.47
2019-04-13T11:14:40.684Z,142473.84
2019-04-13T11:19:44.128Z,142438.81
2019-04-13T11:24:42.811Z,142484.39
2019-04-13T11:29:59.471Z,142626.89
2019-04-13T11:35:05.405Z,142777.77
2019-04-13T11:40:03.533Z,142882.98
2019-04-13T11:45:22.674Z,142770.72
2019-04-13T11:50:21.363Z,142719.25
2019-04-13T11:55:25.248Z,142712.25
2019-04-13T12:00:43.881Z,142698.19
2019-04-13T12:05:42.483Z,142906.41
2019-04-13T12:10:45.861Z,143018.72
2019-04-13T12:16:12.023Z,143030.39
2019-04-13T12:21:36.223Z,142969.56
2019-04-13T12:26:37.085Z,142623.39
2019-04-13T12:31:39.331Z,142667.84
2019-04-13T12:36:38.958Z,142646.78
2019-04-13T12:42:00.872Z,142660.78
2019-04-13T12:46:59.447Z,142678.34
2019-04-13T12:52:00.859Z,142836.20
2019-04-13T12:57:00.441Z,142845.56
2019-04-13T13:02:10.812Z,143030.39
2019-04-13T13:07:19.596Z,142939.14
2019-04-13T13:12:23.479Z,142686.53
2019-04-13T13:17:28.450Z,142962.56
2019-04-13T13:22:25.473Z,143278.64
2019-04-13T13:27:29.155Z,143017.53
2019-04-13T13:32:31.414Z,143278.64
2019-04-13T13:37:31.663Z,143405.20
2019-04-13T13:42:30.519Z,143289.17
2019-04-13T13:47:28.045Z,143099.50
2019-04-13T13:52:32.317Z,143332.56
2019-04-13T13:57:35.842Z,143391.16
2019-04-13T14:02:33.442Z,143408.72
2019-04-13T14:07:32.882Z,143625.63
2019-04-13T14:12:31.640Z,143421.59
2019-04-13T14:17:34.542Z,143535.33
2019-04-13T14:22:32.384Z,143454.44
2019-04-13T14:27:30.751Z,143517.72
2019-04-13T14:32:30.122Z,143639.67
2019-04-13T14:37:36.397Z,143469.69
2019-04-13T14:42:34.333Z,143430.97
2019-04-13T14:47:37.324Z,143203.69
2019-04-13T14:52:36.086Z,143028.09
2019-04-13T14:57:38.981Z,142798.78
2019-04-13T15:02:37.202Z,142582.50
2019-04-13T15:07:35.301Z,142584.84
2019-04-13T15:12:37.009Z,142576.66
2019-04-13T15:17:56.594Z,142546.31
2019-04-13T15:22:57.326Z,142621.09
2019-04-13T15:27:56.855Z,142663.14
2019-04-13T15:32:56.036Z,142555.66
2019-04-13T15:37:56.043Z,142673.64
2019-04-13T15:43:00.091Z,142519.42
2019-04-13T15:47:55.249Z,142573.16
2019-04-13T15:52:58.226Z,142713.39
2019-04-13T15:57:55.577Z,142846.75
2019-04-13T16:02:56.319Z,142962.56
2019-04-13T16:08:05.286Z,143094.78
2019-04-13T16:13:08.799Z,143154.50
2019-04-13T16:18:11.800Z,143206.03
2019-04-13T16:23:11.710Z,143259.91
2019-04-13T16:28:24.681Z,143304.45
2019-04-13T16:33:39.194Z,143454.44
2019-04-13T16:38:51.618Z,143590.41
2019-04-13T16:43:41.000Z,143288.02
2019-04-13T16:48:55.892Z,143000.00
2019-04-13T16:54:00.414Z,142891.19
2019-04-13T16:59:07.390Z,142670.14
2019-04-13T17:04:23.925Z,142527.61
2019-04-13T17:09:27.411Z,142483.19
2019-04-13T17:14:24.887Z,142462.20
2019-04-13T17:24:59.791Z,142476.19
2019-04-13T17:30:17.791Z,142393.31
2019-04-13T17:35:28.668Z,142350.11
2019-04-13T17:46:09.883Z,142376.92
2019-04-13T17:51:37.508Z,142317.39
2019-04-13T17:56:36.482Z,142354.75
2019-04-13T18:01:53.509Z,142289.37
2019-04-13T18:07:09.405Z,142275.39
2019-04-13T18:12:41.546Z,142242.69
2019-04-13T18:17:32.899Z,142240.39
2019-04-13T18:22:31.492Z,142231.06
2019-04-13T18:27:34.992Z,142192.53
2019-04-13T18:32:36.020Z,142186.69
2019-04-13T18:37:32.823Z,142197.22
2019-04-13T18:42:28.806Z,142185.53
2019-04-13T18:47:24.849Z,142224.03
2019-04-13T18:52:21.738Z,142173.86
2019-04-13T18:57:17.837Z,142178.55
2019-04-13T19:02:14.655Z,142163.37
2019-04-13T19:07:10.780Z,142158.69
2019-04-13T19:12:06.707Z,142196.02
2019-04-13T19:17:02.732Z,142144.70
2019-04-13T19:21:58.656Z,142163.37
2019-04-13T19:26:54.582Z,142178.55
2019-04-13T19:31:50.589Z,142191.38
2019-04-13T19:36:46.561Z,142219.38
2019-04-13T19:41:42.481Z,142221.72
2019-04-13T19:46:38.510Z,142205.36
2019-04-13T19:51:41.614Z,142173.86
2019-04-13T19:56:37.605Z,142200.70
2019-04-13T20:01:33.532Z,142158.69
2019-04-13T20:06:29.457Z,142154.03
2019-04-13T20:11:25.377Z,142110.88
2019-04-13T20:16:21.370Z,142175.05
2019-04-13T20:21:22.375Z,142178.55
2019-04-13T20:26:18.728Z,142151.69
2019-04-13T20:31:15.825Z,142141.22
2019-04-13T20:36:16.618Z,142133.03
2019-04-13T20:41:12.687Z,142136.53
2019-04-13T20:46:10.984Z,142142.36
2019-04-13T20:51:12.826Z,142168.02
2019-04-13T20:56:09.793Z,142172.70
2019-04-13T21:01:06.324Z,142156.38
2019-04-13T21:06:02.468Z,142177.34
2019-04-13T21:10:58.405Z,142203.06
2019-04-13T21:15:55.358Z,142186.69
2019-04-13T21:20:59.947Z,142246.23
2019-04-13T21:25:56.082Z,142234.56
2019-04-13T21:30:53.162Z,142231.06
2019-04-13T21:35:49.295Z,142236.91
2019-04-13T21:40:45.205Z,142268.41
2019-04-13T21:45:41.248Z,142270.70
2019-04-13T21:51:00.922Z,142280.05
2019-04-13T21:55:57.225Z,142247.39
2019-04-13T22:01:17.046Z,142256.72
2019-04-13T22:06:13.114Z,142261.38
2019-04-13T22:11:10.311Z,142242.69
2019-04-13T22:16:06.381Z,142285.88
2019-04-13T22:21:06.888Z,142277.75
2019-04-13T22:26:03.063Z,142315.09
2019-04-13T22:31:09.757Z,142310.41
2019-04-13T22:36:16.365Z,142298.72
2019-04-13T22:41:13.408Z,142305.75
2019-04-13T22:46:10.853Z,142301.06
2019-04-13T22:51:27.139Z,142261.38
2019-04-13T22:56:37.652Z,142246.23
2019-04-13T23:01:39.786Z,142234.56
2019-04-13T23:06:35.989Z,142235.70
2019-04-13T23:11:32.459Z,142238.05
2019-04-13T23:16:28.500Z,142236.91
2019-04-13T23:21:25.094Z,142218.22
2019-04-13T23:26:21.295Z,142196.02
2019-04-13T23:31:17.355Z,142182.03
2019-04-13T23:36:13.600Z,142163.37
2019-04-13T23:41:10.316Z,142161.03
2019-04-13T23:46:06.872Z,142136.53
2019-04-13T23:51:03.587Z,142149.34
2019-04-13T23:56:02.035Z,142106.23
